PWSweather.com
Personal Weather Stations
Station Observations
KVAGLENALL
West Henrico, Glen Allen, VA 23060-6503

West HenricoGlen Allen, VA 23060-6503

Lat: 37.6554, Lon: -77.5693

Elevation: 273

Station Type: Davis Vantage Pro II

www.glenallenweather.com

High Low Average
Temperature 89.9°F32.2°C 73.5°F23.1°C 81.0°F27.2°C
Dew Point 79.7°F26.5°C 72.0°F22.2°C 75.0°F23.9°C
Winds 10.0 mph 16.1 kmh Calm Calm 3.0 mph S4.8 kmh S
Wind Gusts 12.1 mph19.5 kmh -- 6.0 mph9.7 kmh
Humidity 97% 68% 83%
Pressure 30.18 in1022.0 mb 30.04 in1017.3 mb -
Precipitation 0.00 in0.0 mm - -
Hour Temp Dew Point Humidity Winds Wind Gusts Pressure Precip Precip Rate Daily Precip Total
12:00 AM 81.5°F27.5°C 76.2°F24.6°C 84% 1.0 mph S1.6 kmh S 6.1 mph9.8 kmh 30.19 in1022.4 mb 0.00 in0.0 mm 0.00 in0.0 mm 0.00 in0.0 mm
12:15 AM 81.4°F27.4°C 76.5°F24.7°C 85% 6.0 mph S9.7 kmh S 6.1 mph9.8 kmh 30.19 in1022.4 mb 0.00 in0.0 mm 0.00 in0.0 mm 0.00 in0.0 mm
12:30 AM 81.2°F27.3°C 76.3°F24.6°C 85% 1.0 mph S1.6 kmh S 6.1 mph9.8 kmh 30.18 in1022.0 mb 0.00 in0.0 mm 0.00 in0.0 mm 0.00 in0.0 mm
12:45 AM 81.0°F27.2°C 76.1°F24.5°C 85% 3.0 mph S4.8 kmh S 5.1 mph8.2 kmh 30.18 in1022.0 mb 0.00 in0.0 mm 0.00 in0.0 mm 0.00 in0.0 mm
01:00 AM 80.7°F27.1°C 75.8°F24.3°C 85% 3.0 mph SSW4.8 kmh SSW 7.1 mph11.4 kmh 30.18 in1022.0 mb 0.00 in0.0 mm 0.00 in0.0 mm 0.00 in0.0 mm
01:15 AM 80.5°F26.9°C 75.9°F24.4°C 86% 2.0 mph SSW3.2 kmh SSW 9.1 mph14.6 kmh 30.18 in1022.0 mb 0.00 in0.0 mm 0.00 in0.0 mm 0.00 in0.0 mm
01:30 AM 80.1°F26.7°C 75.5°F24.2°C 86% 3.0 mph S4.8 kmh S 8.1 mph13.0 kmh 30.18 in1022.0 mb 0.00 in0.0 mm 0.00 in0.0 mm 0.00 in0.0 mm
01:45 AM 79.8°F26.6°C 75.6°F24.2°C 87% 2.0 mph SSW3.2 kmh SSW 5.1 mph8.2 kmh 30.18 in1022.0 mb 0.00 in0.0 mm 0.00 in0.0 mm 0.00 in0.0 mm
02:00 AM 79.5°F26.4°C 75.3°F24.1°C 87% 5.0 mph SW8.0 kmh SW 5.1 mph8.2 kmh 30.18 in1022.0 mb 0.00 in0.0 mm 0.00 in0.0 mm 0.00 in0.0 mm
02:15 AM 79.3°F26.3°C 75.1°F23.9°C 87% 2.0 mph SSW3.2 kmh SSW 5.1 mph8.2 kmh 30.17 in1021.7 mb 0.00 in0.0 mm 0.00 in0.0 mm 0.00 in0.0 mm
02:30 AM 79.1°F26.2°C 74.9°F23.8°C 87% 2.0 mph SSW3.2 kmh SSW 6.1 mph9.8 kmh 30.17 in1021.7 mb 0.00 in0.0 mm 0.00 in0.0 mm 0.00 in0.0 mm
02:45 AM 79.0°F26.1°C 74.5°F23.6°C 86% 4.0 mph SW6.4 kmh SW 5.1 mph8.2 kmh 30.16 in1021.3 mb 0.00 in0.0 mm 0.00 in0.0 mm 0.00 in0.0 mm
03:00 AM 78.7°F25.9°C 74.2°F23.4°C 86% 5.0 mph SW8.0 kmh SW 8.1 mph13.0 kmh 30.16 in1021.3 mb 0.00 in0.0 mm 0.00 in0.0 mm 0.00 in0.0 mm
03:15 AM 78.7°F25.9°C 73.8°F23.2°C 85% 4.0 mph SSW6.4 kmh SSW 5.1 mph8.2 kmh 30.15 in1021.0 mb 0.00 in0.0 mm 0.00 in0.0 mm 0.00 in0.0 mm
03:30 AM 78.7°F25.9°C 73.8°F23.2°C 85% 3.0 mph SW4.8 kmh SW 6.1 mph9.8 kmh 30.14 in1020.7 mb 0.00 in0.0 mm 0.00 in0.0 mm 0.00 in0.0 mm
03:45 AM 78.4°F25.8°C 73.5°F23.1°C 85% 3.0 mph SW4.8 kmh SW 6.1 mph9.8 kmh 30.15 in1021.0 mb 0.00 in0.0 mm 0.00 in0.0 mm 0.00 in0.0 mm
04:00 AM 78.4°F25.8°C 73.5°F23.1°C 85% 3.0 mph SW4.8 kmh SW 9.1 mph14.6 kmh 30.14 in1020.7 mb 0.00 in0.0 mm 0.00 in0.0 mm 0.00 in0.0 mm
04:15 AM 78.0°F25.6°C 73.5°F23.1°C 86% 3.0 mph SSW4.8 kmh SSW 6.1 mph9.8 kmh 30.15 in1021.0 mb 0.00 in0.0 mm 0.00 in0.0 mm 0.00 in0.0 mm
04:30 AM 77.5°F25.3°C 73.3°F22.9°C 87% 3.0 mph SW4.8 kmh SW 4.0 mph6.4 kmh 30.14 in1020.7 mb 0.00 in0.0 mm 0.00 in0.0 mm 0.00 in0.0 mm
04:45 AM 77.3°F25.2°C 73.1°F22.8°C 87% 4.0 mph SSW6.4 kmh SSW 7.1 mph11.4 kmh 30.14 in1020.7 mb 0.00 in0.0 mm 0.00 in0.0 mm 0.00 in0.0 mm
05:00 AM 77.1°F25.1°C 72.9°F22.7°C 87% 4.0 mph SW6.4 kmh SW 8.1 mph13.0 kmh 30.13 in1020.3 mb 0.00 in0.0 mm 0.00 in0.0 mm 0.00 in0.0 mm
05:15 AM 76.8°F24.9°C 73.0°F22.8°C 88% 5.0 mph SSW8.0 kmh SSW 5.1 mph8.2 kmh 30.14 in1020.7 mb 0.00 in0.0 mm 0.00 in0.0 mm 0.00 in0.0 mm
05:30 AM 76.7°F24.8°C 72.5°F22.5°C 87% 5.0 mph SW8.0 kmh SW 9.1 mph14.6 kmh 30.14 in1020.7 mb 0.00 in0.0 mm 0.00 in0.0 mm 0.00 in0.0 mm
05:45 AM 76.6°F24.8°C 72.4°F22.4°C 87% 4.0 mph S6.4 kmh S 8.1 mph13.0 kmh 30.13 in1020.3 mb 0.00 in0.0 mm 0.00 in0.0 mm 0.00 in0.0 mm
06:00 AM 76.6°F24.8°C 72.4°F22.4°C 87% 2.0 mph SSW3.2 kmh SSW 9.1 mph14.6 kmh 30.13 in1020.3 mb 0.00 in0.0 mm 0.00 in0.0 mm 0.00 in0.0 mm
06:15 AM 76.7°F24.8°C 72.5°F22.5°C 87% 7.0 mph SW11.3 kmh SW 10.1 mph16.3 kmh 30.14 in1020.7 mb 0.00 in0.0 mm 0.00 in0.0 mm 0.00 in0.0 mm
06:30 AM 76.8°F24.9°C 72.3°F22.4°C 86% 4.0 mph SSW6.4 kmh SSW 6.1 mph9.8 kmh 30.14 in1020.7 mb 0.00 in0.0 mm 0.00 in0.0 mm 0.00 in0.0 mm
06:45 AM 76.9°F24.9°C 72.7°F22.6°C 87% 3.0 mph SSW4.8 kmh SSW 6.1 mph9.8 kmh 30.13 in1020.3 mb 0.00 in0.0 mm 0.00 in0.0 mm 0.00 in0.0 mm
07:00 AM 77.1°F25.1°C 72.6°F22.6°C 86% 2.0 mph SW3.2 kmh SW 8.1 mph13.0 kmh 30.14 in1020.7 mb 0.00 in0.0 mm 0.00 in0.0 mm 0.00 in0.0 mm
07:15 AM 77.4°F25.2°C 72.9°F22.7°C 86% 3.0 mph SSW4.8 kmh SSW 6.1 mph9.8 kmh 30.14 in1020.7 mb 0.00 in0.0 mm 0.00 in0.0 mm 0.00 in0.0 mm
07:30 AM 77.7°F25.4°C 73.2°F22.9°C 86% 4.0 mph S6.4 kmh S 6.1 mph9.8 kmh 30.13 in1020.3 mb 0.00 in0.0 mm 0.00 in0.0 mm 0.00 in0.0 mm
07:45 AM 78.0°F25.6°C 73.5°F23.1°C 86% 5.0 mph S8.0 kmh S 7.1 mph11.4 kmh 30.13 in1020.3 mb 0.00 in0.0 mm 0.00 in0.0 mm 0.00 in0.0 mm
08:00 AM 78.5°F25.8°C 73.6°F23.1°C 85% 7.0 mph S11.3 kmh S 9.1 mph14.6 kmh 30.13 in1020.3 mb 0.00 in0.0 mm 0.00 in0.0 mm 0.00 in0.0 mm
08:15 AM 78.8°F26.0°C 73.9°F23.3°C 85% 9.0 mph S14.5 kmh S 9.1 mph14.6 kmh 30.13 in1020.3 mb 0.00 in0.0 mm 0.00 in0.0 mm 0.00 in0.0 mm
08:30 AM 79.3°F26.3°C 74.4°F23.6°C 85% 6.0 mph SW9.7 kmh SW 6.1 mph9.8 kmh 30.13 in1020.3 mb 0.00 in0.0 mm 0.00 in0.0 mm 0.00 in0.0 mm
08:45 AM 80.0°F26.7°C 75.1°F23.9°C 85% 1.0 mph SW1.6 kmh SW 8.1 mph13.0 kmh 30.13 in1020.3 mb 0.00 in0.0 mm 0.00 in0.0 mm 0.00 in0.0 mm
09:00 AM 81.2°F27.3°C 74.8°F23.8°C 81% 7.0 mph SSW11.3 kmh SSW 12.1 mph19.5 kmh 30.13 in1020.3 mb 0.00 in0.0 mm 0.00 in0.0 mm 0.00 in0.0 mm
09:15 AM 82.0°F27.8°C 75.6°F24.2°C 81% 1.0 mph SSE1.6 kmh SSE 8.1 mph13.0 kmh 30.13 in1020.3 mb 0.00 in0.0 mm 0.00 in0.0 mm 0.00 in0.0 mm
09:30 AM 82.5°F28.1°C 75.7°F24.3°C 80% 5.0 mph SSW8.0 kmh SSW 10.1 mph16.3 kmh 30.12 in1020.0 mb 0.00 in0.0 mm 0.00 in0.0 mm 0.00 in0.0 mm
09:45 AM 83.4°F28.6°C 77.0°F25.0°C 81% 6.0 mph S9.7 kmh S 6.1 mph9.8 kmh 30.12 in1020.0 mb 0.00 in0.0 mm 0.00 in0.0 mm 0.00 in0.0 mm
10:00 AM 83.8°F28.8°C 77.0°F25.0°C 80% 6.0 mph SW9.7 kmh SW 7.1 mph11.4 kmh 30.12 in1020.0 mb 0.00 in0.0 mm 0.00 in0.0 mm 0.00 in0.0 mm
10:15 AM 84.5°F29.2°C 76.9°F24.9°C 78% 2.0 mph WSW3.2 kmh WSW 6.1 mph9.8 kmh 30.12 in1020.0 mb 0.00 in0.0 mm 0.00 in0.0 mm 0.00 in0.0 mm
10:30 AM 85.6°F29.8°C 78.0°F25.6°C 78% 5.0 mph SW8.0 kmh SW 9.1 mph14.6 kmh 30.12 in1020.0 mb 0.00 in0.0 mm 0.00 in0.0 mm 0.00 in0.0 mm
10:45 AM 86.0°F30.0°C 77.6°F25.3°C 76% 3.0 mph SW4.8 kmh SW 5.1 mph8.2 kmh 30.12 in1020.0 mb 0.00 in0.0 mm 0.00 in0.0 mm 0.00 in0.0 mm
11:00 AM 86.1°F30.1°C 77.3°F25.2°C 75% 3.0 mph SW4.8 kmh SW 5.1 mph8.2 kmh 30.12 in1020.0 mb 0.00 in0.0 mm 0.00 in0.0 mm 0.00 in0.0 mm
11:15 AM 86.2°F30.1°C 78.6°F25.9°C 78% Calm Calm 5.1 mph8.2 kmh 30.12 in1020.0 mb 0.00 in0.0 mm 0.00 in0.0 mm 0.00 in0.0 mm
11:30 AM 87.1°F30.6°C 77.8°F25.4°C 74% 3.0 mph WSW4.8 kmh WSW 5.1 mph8.2 kmh 30.13 in1020.3 mb 0.00 in0.0 mm 0.00 in0.0 mm 0.00 in0.0 mm
11:45 AM 87.8°F31.0°C 79.7°F26.5°C 77% Calm Calm 1.0 mph1.6 kmh 30.13 in1020.3 mb 0.00 in0.0 mm 0.00 in0.0 mm 0.00 in0.0 mm
12:00 PM 89.2°F31.8°C 79.0°F26.1°C 72% 4.0 mph N6.4 kmh N 8.1 mph13.0 kmh 30.12 in1020.0 mb 0.00 in0.0 mm 0.00 in0.0 mm 0.00 in0.0 mm
12:15 PM 89.4°F31.9°C 78.4°F25.8°C 70% 2.0 mph N3.2 kmh N 2.0 mph3.2 kmh 30.12 in1020.0 mb 0.00 in0.0 mm 0.00 in0.0 mm 0.00 in0.0 mm
12:30 PM 88.5°F31.4°C 77.9°F25.5°C 71% 1.0 mph S1.6 kmh S 5.1 mph8.2 kmh 30.12 in1020.0 mb 0.00 in0.0 mm 0.00 in0.0 mm 0.00 in0.0 mm
12:45 PM 88.6°F31.4°C 77.6°F25.3°C 70% Calm Calm 3.0 mph4.8 kmh 30.11 in1019.6 mb 0.00 in0.0 mm 0.00 in0.0 mm 0.00 in0.0 mm
01:00 PM 88.0°F31.1°C 77.5°F25.3°C 71% Calm Calm 4.0 mph6.4 kmh 30.11 in1019.6 mb 0.00 in0.0 mm 0.00 in0.0 mm 0.00 in0.0 mm
01:15 PM 87.1°F30.6°C 77.4°F25.2°C 73% 3.0 mph N4.8 kmh N 5.1 mph8.2 kmh 30.10 in1019.3 mb 0.00 in0.0 mm 0.00 in0.0 mm 0.00 in0.0 mm
01:30 PM 87.1°F30.6°C 76.6°F24.8°C 71% 2.0 mph NNE3.2 kmh NNE 4.0 mph6.4 kmh 30.09 in1019.0 mb 0.00 in0.0 mm 0.00 in0.0 mm 0.00 in0.0 mm
01:45 PM 88.8°F31.6°C 76.9°F24.9°C 68% 3.0 mph NNE4.8 kmh NNE 6.1 mph9.8 kmh 30.09 in1019.0 mb 0.00 in0.0 mm 0.00 in0.0 mm 0.00 in0.0 mm
02:00 PM 87.8°F31.0°C 76.8°F24.9°C 70% 3.0 mph NE4.8 kmh NE 6.1 mph9.8 kmh 30.08 in1018.6 mb 0.00 in0.0 mm 0.00 in0.0 mm 0.00 in0.0 mm
02:15 PM 88.2°F31.2°C 78.1°F25.6°C 72% 3.0 mph N4.8 kmh N 7.1 mph11.4 kmh 30.07 in1018.3 mb 0.00 in0.0 mm 0.00 in0.0 mm 0.00 in0.0 mm
02:30 PM 88.8°F31.6°C 78.2°F25.7°C 71% 1.0 mph W1.6 kmh W 9.1 mph14.6 kmh 30.07 in1018.3 mb 0.00 in0.0 mm 0.00 in0.0 mm 0.00 in0.0 mm
02:45 PM 89.7°F32.1°C 79.0°F26.1°C 71% 2.0 mph E3.2 kmh E 5.1 mph8.2 kmh 30.07 in1018.3 mb 0.00 in0.0 mm 0.00 in0.0 mm 0.00 in0.0 mm
03:00 PM 89.9°F32.2°C 78.3°F25.7°C 69% 4.0 mph NNW6.4 kmh NNW 7.1 mph11.4 kmh 30.06 in1017.9 mb 0.00 in0.0 mm 0.00 in0.0 mm 0.00 in0.0 mm
03:15 PM 89.2°F31.8°C 77.8°F25.4°C 69% 4.0 mph N6.4 kmh N 4.0 mph6.4 kmh 30.06 in1017.9 mb 0.00 in0.0 mm 0.00 in0.0 mm 0.00 in0.0 mm
03:30 PM 89.0°F31.7°C 78.8°F26.0°C 72% 6.0 mph E9.7 kmh E 10.1 mph16.3 kmh 30.04 in1017.3 mb 0.00 in0.0 mm 0.00 in0.0 mm 0.00 in0.0 mm
03:45 PM 89.2°F31.8°C 77.8°F25.4°C 69% 10.0 mph N16.1 kmh N 11.1 mph17.9 kmh 30.04 in1017.3 mb 0.00 in0.0 mm 0.00 in0.0 mm 0.00 in0.0 mm
04:00 PM 88.5°F31.4°C 77.5°F25.3°C 70% 5.0 mph NNE8.0 kmh NNE 9.1 mph14.6 kmh 30.04 in1017.3 mb 0.00 in0.0 mm 0.00 in0.0 mm 0.00 in0.0 mm
04:15 PM 86.5°F30.3°C 76.4°F24.7°C 72% 5.0 mph NNE8.0 kmh NNE 10.1 mph16.3 kmh 30.04 in1017.3 mb 0.00 in0.0 mm 0.00 in0.0 mm 0.00 in0.0 mm
04:30 PM 85.4°F29.7°C 75.4°F24.1°C 72% 5.0 mph N8.0 kmh N 7.1 mph11.4 kmh 30.05 in1017.6 mb 0.00 in0.0 mm 0.00 in0.0 mm 0.00 in0.0 mm
04:45 PM 84.7°F29.3°C 75.5°F24.2°C 74% 4.0 mph NNW6.4 kmh NNW 4.0 mph6.4 kmh 30.05 in1017.6 mb 0.00 in0.0 mm 0.00 in0.0 mm 0.00 in0.0 mm
05:00 PM 85.7°F29.8°C 75.2°F24.0°C 71% 3.0 mph NE4.8 kmh NE 7.1 mph11.4 kmh 30.04 in1017.3 mb 0.00 in0.0 mm 0.00 in0.0 mm 0.00 in0.0 mm
05:15 PM 87.3°F30.7°C 76.4°F24.7°C 70% 7.0 mph E11.3 kmh E 12.1 mph19.5 kmh 30.05 in1017.6 mb 0.00 in0.0 mm 0.00 in0.0 mm 0.00 in0.0 mm
05:30 PM 87.4°F30.8°C 76.0°F24.4°C 69% 4.0 mph NE6.4 kmh NE 8.1 mph13.0 kmh 30.04 in1017.3 mb 0.00 in0.0 mm 0.00 in0.0 mm 0.00 in0.0 mm
05:45 PM 86.5°F30.3°C 75.6°F24.2°C 70% 3.0 mph NNW4.8 kmh NNW 7.1 mph11.4 kmh 30.04 in1017.3 mb 0.00 in0.0 mm 0.00 in0.0 mm 0.00 in0.0 mm
06:00 PM 85.9°F29.9°C 75.0°F23.9°C 70% 3.0 mph ESE4.8 kmh ESE 6.1 mph9.8 kmh 30.04 in1017.3 mb 0.00 in0.0 mm 0.00 in0.0 mm 0.00 in0.0 mm
06:15 PM 85.4°F29.7°C 75.0°F23.9°C 71% 4.0 mph E6.4 kmh E 7.1 mph11.4 kmh 30.04 in1017.3 mb 0.00 in0.0 mm 0.00 in0.0 mm 0.00 in0.0 mm
06:30 PM 83.6°F28.7°C 74.9°F23.8°C 75% 9.0 mph NE14.5 kmh NE 11.1 mph17.9 kmh 30.06 in1017.9 mb 0.00 in0.0 mm 0.00 in0.0 mm 0.00 in0.0 mm
06:45 PM 80.5°F26.9°C 74.9°F23.8°C 83% 5.0 mph NNW8.0 kmh NNW 7.1 mph11.4 kmh 30.07 in1018.3 mb 0.00 in0.0 mm 0.00 in0.0 mm 0.00 in0.0 mm
07:00 PM 78.6°F25.9°C 75.1°F23.9°C 89% Calm Calm -- 30.07 in1018.3 mb 0.07 in1.8 mm 0.09 in2.3 mm 0.07 in1.8 mm
07:15 PM 78.1°F25.6°C 74.9°F23.8°C 90% Calm Calm 1.0 mph1.6 kmh 30.05 in1017.6 mb 0.08 in2.0 mm 0.04 in1.0 mm 0.08 in2.0 mm
07:30 PM 78.3°F25.7°C 75.5°F24.2°C 91% Calm Calm -- 30.06 in1017.9 mb 0.08 in2.0 mm 0.00 in0.0 mm 0.08 in2.0 mm
07:45 PM 78.5°F25.8°C 75.7°F24.3°C 91% Calm Calm -- 30.07 in1018.3 mb 0.08 in2.0 mm 0.00 in0.0 mm 0.08 in2.0 mm
08:00 PM 78.4°F25.8°C 75.9°F24.4°C 92% Calm Calm -- 30.08 in1018.6 mb 0.01 in0.3 mm 0.00 in0.0 mm 0.08 in2.0 mm
08:15 PM 78.0°F25.6°C 75.2°F24.0°C 91% 5.0 mph S8.0 kmh S 8.1 mph13.0 kmh 30.08 in1018.6 mb 0.01 in0.3 mm 0.00 in0.0 mm 0.08 in2.0 mm
08:30 PM 77.0°F25.0°C 74.2°F23.4°C 91% 3.0 mph ESE4.8 kmh ESE 7.1 mph11.4 kmh 30.09 in1019.0 mb 0.00 in0.0 mm 0.00 in0.0 mm 0.08 in2.0 mm
08:45 PM 76.3°F24.6°C 73.5°F23.1°C 91% 3.0 mph SSW4.8 kmh SSW 5.1 mph8.2 kmh 30.09 in1019.0 mb 0.01 in0.3 mm 0.04 in1.0 mm 0.09 in2.3 mm
09:00 PM 75.7°F24.3°C 73.2°F22.9°C 92% 3.0 mph SE4.8 kmh SE 8.1 mph13.0 kmh 30.10 in1019.3 mb 0.10 in2.5 mm 0.12 in3.0 mm 0.18 in4.6 mm
09:15 PM 74.4°F23.6°C 72.2°F22.3°C 93% 3.0 mph NNE4.8 kmh NNE 4.0 mph6.4 kmh 30.10 in1019.3 mb 0.29 in7.4 mm 0.76 in19.3 mm 0.37 in9.4 mm
09:30 PM 73.9°F23.3°C 72.0°F22.2°C 94% Calm Calm -- 30.11 in1019.6 mb 0.32 in8.1 mm 0.12 in3.0 mm 0.40 in10.2 mm
09:45 PM 73.9°F23.3°C 72.4°F22.4°C 95% 2.0 mph SW3.2 kmh SW 2.0 mph3.2 kmh 30.11 in1019.6 mb 0.34 in8.6 mm 0.08 in2.0 mm 0.42 in10.7 mm
10:00 PM 73.7°F23.2°C 72.2°F22.3°C 95% Calm Calm -- 30.11 in1019.6 mb 0.25 in6.4 mm 0.00 in0.0 mm 0.42 in10.7 mm
10:15 PM 73.5°F23.1°C 72.0°F22.2°C 95% Calm Calm -- 30.11 in1019.6 mb 0.25 in6.4 mm 0.00 in0.0 mm 0.42 in10.7 mm
10:30 PM 73.6°F23.1°C 72.1°F22.3°C 95% 3.0 mph SW4.8 kmh SW 3.0 mph4.8 kmh 30.11 in1019.6 mb 0.02 in0.5 mm 0.00 in0.0 mm 0.42 in10.7 mm
10:45 PM 73.7°F23.2°C 72.5°F22.5°C 96% 2.0 mph NE3.2 kmh NE 6.1 mph9.8 kmh 30.12 in1020.0 mb 0.02 in0.5 mm 0.00 in0.0 mm 0.42 in10.7 mm
11:00 PM 73.6°F23.1°C 72.4°F22.4°C 96% Calm Calm -- 30.12 in1020.0 mb 0.00 in0.0 mm 0.00 in0.0 mm 0.42 in10.7 mm
11:15 PM 73.5°F23.1°C 72.3°F22.4°C 96% Calm Calm -- 30.13 in1020.3 mb 0.00 in0.0 mm 0.00 in0.0 mm 0.42 in10.7 mm
11:30 PM 73.6°F23.1°C 72.4°F22.4°C 96% Calm Calm -- 30.12 in1020.0 mb 0.00 in0.0 mm 0.00 in0.0 mm 0.42 in10.7 mm
11:45 PM 73.6°F23.1°C 72.4°F22.4°C 96% Calm Calm -- 30.13 in1020.3 mb 0.00 in0.0 mm 0.00 in0.0 mm 0.42 in10.7 mm